sensor_id;sensor_type;location;lat;lon;timestamp;P1;durP1;ratioP1;P2;durP2;ratioP2
64598;SDS011;51008;51.504;11.548;2023-08-12T00:03:20;7.40;;;3.38;;
64598;SDS011;51008;51.504;11.548;2023-08-12T00:08:21;11.93;;;3.80;;
64598;SDS011;51008;51.504;11.548;2023-08-12T00:13:22;7.53;;;3.45;;
64598;SDS011;51008;51.504;11.548;2023-08-12T00:18:23;6.53;;;3.10;;
64598;SDS011;51008;51.504;11.548;2023-08-12T00:23:24;6.95;;;3.40;;
64598;SDS011;51008;51.504;11.548;2023-08-12T00:28:25;14.48;;;3.17;;
64598;SDS011;51008;51.504;11.548;2023-08-12T00:33:26;5.85;;;2.95;;
64598;SDS011;51008;51.504;11.548;2023-08-12T00:38:27;6.25;;;3.13;;
64598;SDS011;51008;51.504;11.548;2023-08-12T00:43:28;8.32;;;3.20;;
64598;SDS011;51008;51.504;11.548;2023-08-12T00:48:29;9.30;;;3.47;;
64598;SDS011;51008;51.504;11.548;2023-08-12T00:53:30;10.68;;;3.45;;
64598;SDS011;51008;51.504;11.548;2023-08-12T00:58:33;9.30;;;3.40;;
64598;SDS011;51008;51.504;11.548;2023-08-12T01:03:34;9.75;;;3.53;;
64598;SDS011;51008;51.504;11.548;2023-08-12T01:08:35;9.93;;;3.60;;
64598;SDS011;51008;51.504;11.548;2023-08-12T01:13:43;12.45;;;3.45;;
64598;SDS011;51008;51.504;11.548;2023-08-12T01:18:49;8.07;;;3.20;;
64598;SDS011;51008;51.504;11.548;2023-08-12T01:23:50;9.50;;;3.10;;
64598;SDS011;51008;51.504;11.548;2023-08-12T01:28:52;12.50;;;3.95;;
64598;SDS011;51008;51.504;11.548;2023-08-12T01:33:58;6.93;;;3.30;;
64598;SDS011;51008;51.504;11.548;2023-08-12T01:39:05;9.32;;;3.58;;
64598;SDS011;51008;51.504;11.548;2023-08-12T01:44:08;6.60;;;3.25;;
64598;SDS011;51008;51.504;11.548;2023-08-12T01:49:09;5.80;;;3.08;;
64598;SDS011;51008;51.504;11.548;2023-08-12T01:54:10;6.88;;;3.60;;
64598;SDS011;51008;51.504;11.548;2023-08-12T01:59:11;7.05;;;3.30;;
64598;SDS011;51008;51.504;11.548;2023-08-12T02:04:13;7.40;;;3.15;;
64598;SDS011;51008;51.504;11.548;2023-08-12T02:09:14;10.93;;;3.60;;
64598;SDS011;51008;51.504;11.548;2023-08-12T02:14:15;7.55;;;3.22;;
64598;SDS011;51008;51.504;11.548;2023-08-12T02:19:16;5.53;;;3.05;;
64598;SDS011;51008;51.504;11.548;2023-08-12T02:24:17;6.72;;;3.05;;
64598;SDS011;51008;51.504;11.548;2023-08-12T02:29:18;5.30;;;3.40;;
64598;SDS011;51008;51.504;11.548;2023-08-12T02:34:19;7.30;;;2.78;;
64598;SDS011;51008;51.504;11.548;2023-08-12T02:39:20;6.50;;;3.17;;
64598;SDS011;51008;51.504;11.548;2023-08-12T02:44:24;7.18;;;3.08;;
64598;SDS011;51008;51.504;11.548;2023-08-12T02:49:25;7.00;;;3.05;;
64598;SDS011;51008;51.504;11.548;2023-08-12T02:54:26;8.10;;;3.50;;
64598;SDS011;51008;51.504;11.548;2023-08-12T02:59:27;6.30;;;3.25;;
64598;SDS011;51008;51.504;11.548;2023-08-12T03:04:28;6.57;;;3.10;;
64598;SDS011;51008;51.504;11.548;2023-08-12T03:09:29;7.03;;;2.90;;
64598;SDS011;51008;51.504;11.548;2023-08-12T03:14:31;5.38;;;3.10;;
64598;SDS011;51008;51.504;11.548;2023-08-12T03:19:34;6.05;;;3.20;;
64598;SDS011;51008;51.504;11.548;2023-08-12T03:24:35;5.00;;;3.10;;
64598;SDS011;51008;51.504;11.548;2023-08-12T03:29:36;8.70;;;3.33;;
64598;SDS011;51008;51.504;11.548;2023-08-12T03:34:37;6.80;;;3.35;;
64598;SDS011;51008;51.504;11.548;2023-08-12T03:39:39;6.70;;;3.10;;
64598;SDS011;51008;51.504;11.548;2023-08-12T03:44:40;8.13;;;2.80;;
64598;SDS011;51008;51.504;11.548;2023-08-12T03:49:41;4.63;;;2.90;;
64598;SDS011;51008;51.504;11.548;2023-08-12T03:54:42;4.07;;;2.80;;
64598;SDS011;51008;51.504;11.548;2023-08-12T03:59:44;8.07;;;3.08;;
64598;SDS011;51008;51.504;11.548;2023-08-12T04:04:45;4.93;;;2.90;;
64598;SDS011;51008;51.504;11.548;2023-08-12T04:09:46;5.38;;;2.75;;
64598;SDS011;51008;51.504;11.548;2023-08-12T04:14:47;6.00;;;2.83;;
64598;SDS011;51008;51.504;11.548;2023-08-12T04:19:48;4.20;;;2.80;;
64598;SDS011;51008;51.504;11.548;2023-08-12T04:24:49;5.82;;;3.25;;
64598;SDS011;51008;51.504;11.548;2023-08-12T04:29:51;8.25;;;3.28;;
64598;SDS011;51008;51.504;11.548;2023-08-12T04:34:52;7.07;;;3.17;;
64598;SDS011;51008;51.504;11.548;2023-08-12T04:39:53;7.97;;;3.40;;
64598;SDS011;51008;51.504;11.548;2023-08-12T04:44:55;5.70;;;3.20;;
64598;SDS011;51008;51.504;11.548;2023-08-12T04:49:56;6.07;;;3.03;;
64598;SDS011;51008;51.504;11.548;2023-08-12T04:54:57;4.63;;;3.10;;
64598;SDS011;51008;51.504;11.548;2023-08-12T05:00:00;6.07;;;3.10;;
64598;SDS011;51008;51.504;11.548;2023-08-12T05:05:02;6.45;;;3.50;;
64598;SDS011;51008;51.504;11.548;2023-08-12T05:10:05;4.55;;;3.15;;
64598;SDS011;51008;51.504;11.548;2023-08-12T05:15:07;6.68;;;2.80;;
64598;SDS011;51008;51.504;11.548;2023-08-12T05:20:09;8.88;;;3.63;;
64598;SDS011;51008;51.504;11.548;2023-08-12T05:25:10;7.15;;;3.75;;
64598;SDS011;51008;51.504;11.548;2023-08-12T05:30:11;11.40;;;4.35;;
64598;SDS011;51008;51.504;11.548;2023-08-12T05:35:12;11.73;;;3.85;;
64598;SDS011;51008;51.504;11.548;2023-08-12T05:40:13;11.48;;;3.90;;
64598;SDS011;51008;51.504;11.548;2023-08-12T05:45:14;13.18;;;4.60;;
64598;SDS011;51008;51.504;11.548;2023-08-12T05:50:15;8.07;;;3.60;;
64598;SDS011;51008;51.504;11.548;2023-08-12T05:55:16;8.50;;;3.90;;
64598;SDS011;51008;51.504;11.548;2023-08-12T06:00:17;12.77;;;3.70;;
64598;SDS011;51008;51.504;11.548;2023-08-12T06:05:18;11.40;;;4.03;;
64598;SDS011;51008;51.504;11.548;2023-08-12T06:10:19;6.45;;;3.20;;
64598;SDS011;51008;51.504;11.548;2023-08-12T06:15:20;10.63;;;3.80;;
64598;SDS011;51008;51.504;11.548;2023-08-12T06:20:22;9.18;;;3.70;;
64598;SDS011;51008;51.504;11.548;2023-08-12T06:25:24;14.10;;;4.27;;
64598;SDS011;51008;51.504;11.548;2023-08-12T06:30:25;9.45;;;3.63;;
64598;SDS011;51008;51.504;11.548;2023-08-12T06:35:26;10.00;;;4.45;;
64598;SDS011;51008;51.504;11.548;2023-08-12T06:40:27;12.52;;;4.47;;
64598;SDS011;51008;51.504;11.548;2023-08-12T06:45:28;14.27;;;4.88;;
64598;SDS011;51008;51.504;11.548;2023-08-12T06:50:29;10.70;;;4.93;;
64598;SDS011;51008;51.504;11.548;2023-08-12T06:55:30;12.40;;;4.72;;
64598;SDS011;51008;51.504;11.548;2023-08-12T07:00:30;12.48;;;4.60;;
64598;SDS011;51008;51.504;11.548;2023-08-12T07:05:31;15.18;;;5.10;;
64598;SDS011;51008;51.504;11.548;2023-08-12T07:10:32;9.77;;;4.95;;
64598;SDS011;51008;51.504;11.548;2023-08-12T07:15:33;13.00;;;4.50;;
64598;SDS011;51008;51.504;11.548;2023-08-12T07:20:34;8.85;;;4.32;;
64598;SDS011;51008;51.504;11.548;2023-08-12T07:25:35;11.40;;;5.30;;
64598;SDS011;51008;51.504;11.548;2023-08-12T07:30:36;9.07;;;4.82;;
64598;SDS011;51008;51.504;11.548;2023-08-12T07:35:37;12.50;;;5.47;;
64598;SDS011;51008;51.504;11.548;2023-08-12T07:40:38;20.27;;;6.93;;
64598;SDS011;51008;51.504;11.548;2023-08-12T07:45:39;15.82;;;6.28;;
64598;SDS011;51008;51.504;11.548;2023-08-12T07:50:40;14.43;;;7.03;;
64598;SDS011;51008;51.504;11.548;2023-08-12T07:55:42;12.40;;;6.30;;
64598;SDS011;51008;51.504;11.548;2023-08-12T08:00:43;23.13;;;7.18;;
64598;SDS011;51008;51.504;11.548;2023-08-12T08:05:44;14.07;;;6.35;;
64598;SDS011;51008;51.504;11.548;2023-08-12T08:10:45;12.73;;;6.30;;
64598;SDS011;51008;51.504;11.548;2023-08-12T08:15:46;12.07;;;6.00;;
64598;SDS011;51008;51.504;11.548;2023-08-12T08:20:47;10.13;;;5.70;;
64598;SDS011;51008;51.504;11.548;2023-08-12T08:25:48;10.63;;;6.20;;
64598;SDS011;51008;51.504;11.548;2023-08-12T08:30:49;12.13;;;7.10;;
64598;SDS011;51008;51.504;11.548;2023-08-12T08:35:50;8.50;;;5.72;;
64598;SDS011;51008;51.504;11.548;2023-08-12T08:40:51;9.43;;;4.90;;
64598;SDS011;51008;51.504;11.548;2023-08-12T08:45:52;8.38;;;5.75;;
64598;SDS011;51008;51.504;11.548;2023-08-12T08:50:53;8.40;;;5.18;;
64598;SDS011;51008;51.504;11.548;2023-08-12T08:55:56;9.33;;;5.73;;
64598;SDS011;51008;51.504;11.548;2023-08-12T09:00:58;15.05;;;5.32;;
64598;SDS011;51008;51.504;11.548;2023-08-12T09:05:59;6.65;;;5.10;;
64598;SDS011;51008;51.504;11.548;2023-08-12T09:11:00;8.23;;;5.53;;
64598;SDS011;51008;51.504;11.548;2023-08-12T09:16:03;10.30;;;6.20;;
64598;SDS011;51008;51.504;11.548;2023-08-12T09:21:04;8.00;;;5.07;;
64598;SDS011;51008;51.504;11.548;2023-08-12T09:26:18;8.85;;;6.10;;
64598;SDS011;51008;51.504;11.548;2023-08-12T09:31:24;10.80;;;6.57;;
64598;SDS011;51008;51.504;11.548;2023-08-12T09:36:29;11.45;;;6.75;;
64598;SDS011;51008;51.504;11.548;2023-08-12T09:41:31;11.90;;;6.93;;
64598;SDS011;51008;51.504;11.548;2023-08-12T09:46:35;7.85;;;6.05;;
64598;SDS011;51008;51.504;11.548;2023-08-12T09:51:36;9.20;;;6.35;;
64598;SDS011;51008;51.504;11.548;2023-08-12T09:56:37;10.02;;;6.00;;
64598;SDS011;51008;51.504;11.548;2023-08-12T10:01:40;9.88;;;5.82;;
64598;SDS011;51008;51.504;11.548;2023-08-12T10:06:44;8.18;;;4.80;;
64598;SDS011;51008;51.504;11.548;2023-08-12T10:11:45;10.20;;;5.10;;
64598;SDS011;51008;51.504;11.548;2023-08-12T10:16:46;7.75;;;5.05;;
64598;SDS011;51008;51.504;11.548;2023-08-12T10:21:48;10.30;;;4.80;;
64598;SDS011;51008;51.504;11.548;2023-08-12T10:26:51;13.05;;;4.68;;
64598;SDS011;51008;51.504;11.548;2023-08-12T10:31:52;8.73;;;4.87;;
64598;SDS011;51008;51.504;11.548;2023-08-12T10:36:53;7.25;;;4.97;;
64598;SDS011;51008;51.504;11.548;2023-08-12T10:41:56;9.48;;;4.72;;
64598;SDS011;51008;51.504;11.548;2023-08-12T10:46:57;9.90;;;4.53;;
64598;SDS011;51008;51.504;11.548;2023-08-12T10:51:58;6.18;;;4.30;;
64598;SDS011;51008;51.504;11.548;2023-08-12T11:07:33;5.47;;;4.20;;
64598;SDS011;51008;51.504;11.548;2023-08-12T11:12:39;6.65;;;4.13;;
64598;SDS011;51008;51.504;11.548;2023-08-12T11:17:43;6.82;;;3.75;;
64598;SDS011;51008;51.504;11.548;2023-08-12T11:22:47;6.97;;;3.88;;
64598;SDS011;51008;51.504;11.548;2023-08-12T11:27:48;10.85;;;4.55;;
64598;SDS011;51008;51.504;11.548;2023-08-12T11:32:50;9.95;;;4.10;;
64598;SDS011;51008;51.504;11.548;2023-08-12T11:37:53;6.28;;;3.65;;
64598;SDS011;51008;51.504;11.548;2023-08-12T11:42:54;6.28;;;4.13;;
64598;SDS011;51008;51.504;11.548;2023-08-12T11:47:56;5.60;;;3.70;;
64598;SDS011;51008;51.504;11.548;2023-08-12T11:52:56;6.25;;;3.88;;
64598;SDS011;51008;51.504;11.548;2023-08-12T11:57:58;8.27;;;4.20;;
64598;SDS011;51008;51.504;11.548;2023-08-12T12:02:59;4.83;;;3.47;;
64598;SDS011;51008;51.504;11.548;2023-08-12T12:08:00;10.03;;;4.40;;
64598;SDS011;51008;51.504;11.548;2023-08-12T12:13:01;6.67;;;3.57;;
64598;SDS011;51008;51.504;11.548;2023-08-12T12:18:08;6.13;;;4.10;;
64598;SDS011;51008;51.504;11.548;2023-08-12T12:23:13;6.55;;;3.88;;
64598;SDS011;51008;51.504;11.548;2023-08-12T12:28:16;6.13;;;4.18;;
64598;SDS011;51008;51.504;11.548;2023-08-12T12:33:17;5.03;;;3.90;;
64598;SDS011;51008;51.504;11.548;2023-08-12T12:38:18;8.93;;;3.83;;
64598;SDS011;51008;51.504;11.548;2023-08-12T12:43:19;7.07;;;4.73;;
64598;SDS011;51008;51.504;11.548;2023-08-12T12:48:20;7.07;;;4.03;;
64598;SDS011;51008;51.504;11.548;2023-08-12T12:53:21;7.53;;;3.60;;
64598;SDS011;51008;51.504;11.548;2023-08-12T12:58:22;5.28;;;4.07;;
64598;SDS011;51008;51.504;11.548;2023-08-12T13:03:23;5.38;;;4.00;;
64598;SDS011;51008;51.504;11.548;2023-08-12T13:08:24;5.97;;;3.83;;
64598;SDS011;51008;51.504;11.548;2023-08-12T13:13:25;7.50;;;3.50;;
64598;SDS011;51008;51.504;11.548;2023-08-12T13:18:26;6.63;;;3.63;;
64598;SDS011;51008;51.504;11.548;2023-08-12T13:23:27;5.25;;;3.38;;
64598;SDS011;51008;51.504;11.548;2023-08-12T13:28:28;5.78;;;3.35;;
64598;SDS011;51008;51.504;11.548;2023-08-12T13:33:29;4.25;;;3.58;;
64598;SDS011;51008;51.504;11.548;2023-08-12T13:38:30;5.82;;;3.20;;
64598;SDS011;51008;51.504;11.548;2023-08-12T13:43:31;5.33;;;3.23;;
64598;SDS011;51008;51.504;11.548;2023-08-12T13:48:32;6.23;;;3.10;;
64598;SDS011;51008;51.504;11.548;2023-08-12T13:53:33;3.70;;;2.80;;
64598;SDS011;51008;51.504;11.548;2023-08-12T13:58:34;5.17;;;2.73;;
64598;SDS011;51008;51.504;11.548;2023-08-12T14:03:35;2.37;;;1.87;;
64598;SDS011;51008;51.504;11.548;2023-08-12T14:08:36;2.73;;;1.83;;
64598;SDS011;51008;51.504;11.548;2023-08-12T14:13:37;5.63;;;2.30;;
64598;SDS011;51008;51.504;11.548;2023-08-12T14:18:38;5.97;;;2.40;;
64598;SDS011;51008;51.504;11.548;2023-08-12T14:23:39;5.10;;;2.17;;
64598;SDS011;51008;51.504;11.548;2023-08-12T14:28:40;6.73;;;2.10;;
64598;SDS011;51008;51.504;11.548;2023-08-12T14:33:41;4.32;;;2.25;;
64598;SDS011;51008;51.504;11.548;2023-08-12T14:38:41;3.38;;;2.28;;
64598;SDS011;51008;51.504;11.548;2023-08-12T14:43:42;3.88;;;2.30;;
64598;SDS011;51008;51.504;11.548;2023-08-12T14:48:43;4.05;;;2.40;;
64598;SDS011;51008;51.504;11.548;2023-08-12T14:53:44;3.13;;;2.00;;
64598;SDS011;51008;51.504;11.548;2023-08-12T14:58:45;4.55;;;2.45;;
64598;SDS011;51008;51.504;11.548;2023-08-12T15:03:46;2.88;;;1.98;;
64598;SDS011;51008;51.504;11.548;2023-08-12T15:08:47;4.05;;;2.40;;
64598;SDS011;51008;51.504;11.548;2023-08-12T15:13:48;3.75;;;2.28;;
64598;SDS011;51008;51.504;11.548;2023-08-12T15:18:49;2.75;;;2.03;;
64598;SDS011;51008;51.504;11.548;2023-08-12T15:23:51;3.33;;;1.98;;
64598;SDS011;51008;51.504;11.548;2023-08-12T15:28:52;6.22;;;2.30;;
64598;SDS011;51008;51.504;11.548;2023-08-12T15:33:53;6.35;;;2.20;;
64598;SDS011;51008;51.504;11.548;2023-08-12T15:38:54;7.38;;;2.50;;
64598;SDS011;51008;51.504;11.548;2023-08-12T15:43:54;4.93;;;2.10;;
64598;SDS011;51008;51.504;11.548;2023-08-12T15:48:55;6.28;;;2.35;;
64598;SDS011;51008;51.504;11.548;2023-08-12T15:53:56;6.90;;;2.40;;
64598;SDS011;51008;51.504;11.548;2023-08-12T15:58:58;4.72;;;2.15;;
64598;SDS011;51008;51.504;11.548;2023-08-12T16:03:59;2.28;;;1.98;;
64598;SDS011;51008;51.504;11.548;2023-08-12T16:09:00;2.90;;;2.00;;
64598;SDS011;51008;51.504;11.548;2023-08-12T16:14:01;6.10;;;1.90;;
64598;SDS011;51008;51.504;11.548;2023-08-12T16:19:02;3.15;;;2.30;;
64598;SDS011;51008;51.504;11.548;2023-08-12T16:24:03;4.88;;;2.72;;
64598;SDS011;51008;51.504;11.548;2023-08-12T16:29:04;6.15;;;2.75;;
64598;SDS011;51008;51.504;11.548;2023-08-12T16:34:05;7.25;;;3.38;;
64598;SDS011;51008;51.504;11.548;2023-08-12T16:39:06;4.43;;;2.75;;
64598;SDS011;51008;51.504;11.548;2023-08-12T16:44:07;7.10;;;3.15;;
64598;SDS011;51008;51.504;11.548;2023-08-12T16:49:08;6.47;;;3.67;;
64598;SDS011;51008;51.504;11.548;2023-08-12T16:54:09;8.20;;;4.72;;
64598;SDS011;51008;51.504;11.548;2023-08-12T16:59:10;9.35;;;4.75;;
64598;SDS011;51008;51.504;11.548;2023-08-12T17:04:11;9.98;;;4.63;;
64598;SDS011;51008;51.504;11.548;2023-08-12T17:09:12;11.52;;;5.40;;
64598;SDS011;51008;51.504;11.548;2023-08-12T17:14:13;9.65;;;5.28;;
64598;SDS011;51008;51.504;11.548;2023-08-12T17:19:13;8.50;;;4.80;;
64598;SDS011;51008;51.504;11.548;2023-08-12T17:24:14;9.75;;;5.20;;
64598;SDS011;51008;51.504;11.548;2023-08-12T17:29:15;7.28;;;4.93;;
64598;SDS011;51008;51.504;11.548;2023-08-12T17:34:16;8.25;;;4.60;;
64598;SDS011;51008;51.504;11.548;2023-08-12T17:39:17;9.18;;;4.93;;
64598;SDS011;51008;51.504;11.548;2023-08-12T17:44:18;8.52;;;4.55;;
64598;SDS011;51008;51.504;11.548;2023-08-12T17:49:19;9.50;;;4.55;;
64598;SDS011;51008;51.504;11.548;2023-08-12T17:54:20;9.18;;;4.65;;
64598;SDS011;51008;51.504;11.548;2023-08-12T17:59:21;7.80;;;4.90;;
64598;SDS011;51008;51.504;11.548;2023-08-12T18:04:22;10.55;;;5.03;;
64598;SDS011;51008;51.504;11.548;2023-08-12T18:09:23;11.38;;;4.82;;
64598;SDS011;51008;51.504;11.548;2023-08-12T18:14:24;11.30;;;5.47;;
64598;SDS011;51008;51.504;11.548;2023-08-12T18:19:25;11.10;;;5.18;;
64598;SDS011;51008;51.504;11.548;2023-08-12T18:24:26;7.30;;;4.55;;
64598;SDS011;51008;51.504;11.548;2023-08-12T18:29:27;9.25;;;4.97;;
64598;SDS011;51008;51.504;11.548;2023-08-12T18:34:28;10.00;;;5.32;;
64598;SDS011;51008;51.504;11.548;2023-08-12T18:39:29;7.22;;;4.07;;
64598;SDS011;51008;51.504;11.548;2023-08-12T18:44:30;8.48;;;4.10;;
64598;SDS011;51008;51.504;11.548;2023-08-12T18:49:31;11.75;;;4.38;;
64598;SDS011;51008;51.504;11.548;2023-08-12T18:54:32;8.65;;;4.32;;
64598;SDS011;51008;51.504;11.548;2023-08-12T18:59:33;7.03;;;3.60;;
64598;SDS011;51008;51.504;11.548;2023-08-12T19:04:34;6.25;;;4.07;;
64598;SDS011;51008;51.504;11.548;2023-08-12T19:09:35;7.63;;;3.53;;
64598;SDS011;51008;51.504;11.548;2023-08-12T19:14:36;7.38;;;4.00;;
64598;SDS011;51008;51.504;11.548;2023-08-12T19:19:37;6.97;;;4.30;;
64598;SDS011;51008;51.504;11.548;2023-08-12T19:24:38;9.35;;;4.32;;
64598;SDS011;51008;51.504;11.548;2023-08-12T19:29:39;7.97;;;4.10;;
64598;SDS011;51008;51.504;11.548;2023-08-12T19:34:40;8.05;;;4.57;;
64598;SDS011;51008;51.504;11.548;2023-08-12T19:39:41;8.02;;;3.88;;
64598;SDS011;51008;51.504;11.548;2023-08-12T19:44:42;8.82;;;3.97;;
64598;SDS011;51008;51.504;11.548;2023-08-12T19:49:43;9.88;;;4.38;;
64598;SDS011;51008;51.504;11.548;2023-08-12T19:54:44;6.20;;;3.30;;
64598;SDS011;51008;51.504;11.548;2023-08-12T19:59:45;8.30;;;3.65;;
64598;SDS011;51008;51.504;11.548;2023-08-12T20:04:45;8.10;;;3.28;;
64598;SDS011;51008;51.504;11.548;2023-08-12T20:09:46;7.07;;;3.20;;
64598;SDS011;51008;51.504;11.548;2023-08-12T20:14:47;6.03;;;3.30;;
64598;SDS011;51008;51.504;11.548;2023-08-12T20:19:48;6.15;;;3.65;;
64598;SDS011;51008;51.504;11.548;2023-08-12T20:24:49;8.50;;;3.60;;
64598;SDS011;51008;51.504;11.548;2023-08-12T20:29:50;9.27;;;3.20;;
64598;SDS011;51008;51.504;11.548;2023-08-12T20:34:51;8.00;;;3.53;;
64598;SDS011;51008;51.504;11.548;2023-08-12T20:39:53;4.80;;;2.78;;
64598;SDS011;51008;51.504;11.548;2023-08-12T20:44:54;6.90;;;3.53;;
64598;SDS011;51008;51.504;11.548;2023-08-12T20:49:55;4.97;;;3.00;;
64598;SDS011;51008;51.504;11.548;2023-08-12T20:54:56;5.97;;;2.90;;
64598;SDS011;51008;51.504;11.548;2023-08-12T20:59:57;4.63;;;2.90;;
64598;SDS011;51008;51.504;11.548;2023-08-12T21:04:58;5.47;;;2.85;;
64598;SDS011;51008;51.504;11.548;2023-08-12T21:09:59;4.18;;;2.00;;
64598;SDS011;51008;51.504;11.548;2023-08-12T21:15:00;5.43;;;2.40;;
64598;SDS011;51008;51.504;11.548;2023-08-12T21:20:01;4.72;;;2.47;;
64598;SDS011;51008;51.504;11.548;2023-08-12T21:25:02;4.07;;;2.20;;
64598;SDS011;51008;51.504;11.548;2023-08-12T21:30:04;4.57;;;2.13;;
64598;SDS011;51008;51.504;11.548;2023-08-12T21:35:05;4.38;;;2.30;;
64598;SDS011;51008;51.504;11.548;2023-08-12T21:40:07;6.38;;;2.45;;
64598;SDS011;51008;51.504;11.548;2023-08-12T21:45:08;4.80;;;2.05;;
64598;SDS011;51008;51.504;11.548;2023-08-12T21:50:09;4.30;;;2.10;;
64598;SDS011;51008;51.504;11.548;2023-08-12T21:55:10;4.97;;;2.35;;
64598;SDS011;51008;51.504;11.548;2023-08-12T22:00:11;3.92;;;2.05;;
64598;SDS011;51008;51.504;11.548;2023-08-12T22:05:12;4.00;;;2.00;;
64598;SDS011;51008;51.504;11.548;2023-08-12T22:10:13;2.72;;;1.90;;
64598;SDS011;51008;51.504;11.548;2023-08-12T22:15:14;4.20;;;1.80;;
64598;SDS011;51008;51.504;11.548;2023-08-12T22:20:15;4.85;;;2.20;;
64598;SDS011;51008;51.504;11.548;2023-08-12T22:25:16;3.50;;;2.10;;
64598;SDS011;51008;51.504;11.548;2023-08-12T22:30:17;5.40;;;2.97;;
64598;SDS011;51008;51.504;11.548;2023-08-12T22:35:18;5.35;;;3.40;;
64598;SDS011;51008;51.504;11.548;2023-08-12T22:40:19;4.32;;;2.30;;
64598;SDS011;51008;51.504;11.548;2023-08-12T22:45:20;2.35;;;1.90;;
64598;SDS011;51008;51.504;11.548;2023-08-12T22:50:21;4.03;;;1.98;;
64598;SDS011;51008;51.504;11.548;2023-08-12T22:55:22;5.32;;;2.15;;
64598;SDS011;51008;51.504;11.548;2023-08-12T23:00:23;4.07;;;1.80;;
64598;SDS011;51008;51.504;11.548;2023-08-12T23:05:24;6.03;;;1.98;;
64598;SDS011;51008;51.504;11.548;2023-08-12T23:10:25;2.78;;;2.00;;
64598;SDS011;51008;51.504;11.548;2023-08-12T23:15:26;3.70;;;1.90;;
64598;SDS011;51008;51.504;11.548;2023-08-12T23:20:27;4.13;;;2.28;;
64598;SDS011;51008;51.504;11.548;2023-08-12T23:25:28;4.63;;;2.28;;
64598;SDS011;51008;51.504;11.548;2023-08-12T23:30:29;4.93;;;2.20;;
64598;SDS011;51008;51.504;11.548;2023-08-12T23:35:30;4.80;;;1.90;;
64598;SDS011;51008;51.504;11.548;2023-08-12T23:40:31;3.58;;;2.13;;
64598;SDS011;51008;51.504;11.548;2023-08-12T23:45:34;3.33;;;2.10;;
64598;SDS011;51008;51.504;11.548;2023-08-12T23:50:36;2.33;;;1.73;;
64598;SDS011;51008;51.504;11.548;2023-08-12T23:55:37;6.75;;;2.53;;
